createdAt,value
2024-01-06T00:00:01.895Z,70.37
2024-01-06T00:01:07.194Z,70.54
2024-01-06T00:02:10.534Z,70.55
2024-01-06T00:03:13.981Z,70.49
2024-01-06T00:04:21.128Z,70.46
2024-01-06T00:05:30.385Z,70.44
2024-01-06T00:06:35.453Z,70.13
2024-01-06T00:07:41.514Z,70.18
2024-01-06T00:08:51.491Z,70.28
2024-01-06T00:09:59.984Z,70.21
2024-01-06T00:11:05.216Z,69.94
2024-01-06T00:12:08.129Z,69.92
2024-01-06T00:13:14.888Z,70.08
2024-01-06T00:14:18.772Z,70.19
2024-01-06T00:15:25.333Z,70.14
2024-01-06T00:16:29.788Z,70.16
2024-01-06T00:17:34.149Z,70.18
2024-01-06T00:18:40.481Z,70.34
2024-01-06T00:19:47.113Z,70.39
2024-01-06T00:20:52.668Z,70.20
2024-01-06T00:21:56.285Z,70.04
2024-01-06T00:23:01.968Z,69.96
2024-01-06T00:24:13.677Z,70.07
2024-01-06T00:25:19.828Z,70.29
2024-01-06T00:26:24.692Z,70.40
2024-01-06T00:27:30.075Z,70.40
2024-01-06T00:28:41.847Z,70.49
2024-01-06T00:29:45.041Z,70.64
2024-01-06T00:30:54.333Z,70.63
2024-01-06T00:31:58.037Z,70.68
2024-01-06T00:33:04.026Z,70.92
2024-01-06T00:34:09.012Z,71.05
2024-01-06T00:35:13.192Z,71.29
2024-01-06T00:36:21.489Z,71.27
2024-01-06T00:37:32.325Z,71.26
2024-01-06T00:38:38.409Z,70.82
2024-01-06T00:39:48.147Z,70.92
2024-01-06T00:41:01.272Z,71.17
2024-01-06T00:42:05.910Z,71.11
2024-01-06T00:43:10.494Z,70.97
2024-01-06T00:44:14.760Z,70.91
2024-01-06T00:45:22.858Z,70.85
2024-01-06T00:46:26.972Z,70.74
2024-01-06T00:47:33.764Z,70.89
2024-01-06T00:48:39.816Z,70.94
2024-01-06T00:49:46.161Z,71.10
2024-01-06T00:50:53.004Z,71.11
2024-01-06T00:51:57.651Z,71.15
2024-01-06T00:53:05.376Z,71.27
2024-01-06T00:54:08.408Z,71.19
2024-01-06T00:55:16.186Z,71.23
2024-01-06T00:56:21.482Z,71.21
2024-01-06T00:57:24.721Z,70.97
2024-01-06T00:58:27.489Z,70.99
2024-01-06T00:59:32.144Z,71.17
2024-01-06T01:00:38.345Z,71.25
2024-01-06T01:01:41.875Z,71.19
2024-01-06T01:02:45.989Z,71.23
2024-01-06T01:03:52.499Z,71.23
2024-01-06T01:04:58.906Z,71.26
2024-01-06T01:06:03.757Z,71.19
2024-01-06T01:07:10.161Z,71.21
2024-01-06T01:08:13.379Z,71.22
2024-01-06T01:09:17.872Z,71.29
2024-01-06T01:10:41.115Z,71.29
2024-01-06T01:11:44.446Z,71.14
2024-01-06T01:12:51.281Z,71.06
2024-01-06T01:13:57.607Z,71.00
2024-01-06T01:15:04.145Z,71.26
2024-01-06T01:16:07.269Z,71.29
2024-01-06T01:17:13.229Z,71.41
2024-01-06T01:18:18.273Z,71.46
2024-01-06T01:19:22.209Z,71.60
2024-01-06T01:20:25.718Z,71.58
2024-01-06T01:21:32.793Z,71.51
2024-01-06T01:22:41.218Z,71.43
2024-01-06T01:23:52.469Z,71.61
2024-01-06T01:24:57.805Z,71.39
2024-01-06T01:26:04.239Z,71.26
2024-01-06T01:27:12.414Z,71.21
2024-01-06T01:28:19.712Z,71.24
2024-01-06T01:29:22.845Z,71.16
2024-01-06T01:30:29.077Z,71.00
2024-01-06T01:31:35.999Z,71.05
2024-01-06T01:32:40.011Z,71.05
2024-01-06T01:33:45.200Z,71.18
2024-01-06T01:34:51.750Z,71.04
2024-01-06T01:35:55.300Z,71.06
2024-01-06T01:36:59.081Z,71.08
2024-01-06T01:38:03.204Z,71.16
2024-01-06T01:39:05.513Z,71.25
2024-01-06T01:40:21.038Z,71.42
2024-01-06T01:41:25.250Z,71.44
2024-01-06T01:42:38.412Z,71.61
2024-01-06T01:43:40.935Z,71.74
2024-01-06T01:44:49.857Z,71.90
2024-01-06T01:45:56.921Z,72.03
2024-01-06T01:47:01.023Z,72.10
2024-01-06T01:48:05.663Z,72.27
2024-01-06T01:49:19.368Z,72.32
2024-01-06T01:50:26.058Z,72.38
2024-01-06T01:51:31.853Z,72.32
2024-01-06T01:52:38.889Z,72.30
2024-01-06T01:53:42.708Z,72.42
2024-01-06T01:54:50.532Z,72.43
2024-01-06T01:55:55.362Z,72.43
2024-01-06T01:57:05.288Z,72.57
2024-01-06T01:58:13.832Z,72.66
2024-01-06T01:59:20.610Z,72.60
2024-01-06T02:00:27.973Z,72.65
2024-01-06T02:01:38.952Z,72.59
2024-01-06T02:02:46.040Z,72.64
2024-01-06T02:03:55.179Z,72.67
2024-01-06T02:05:06.402Z,72.65
2024-01-06T02:06:13.419Z,72.85
2024-01-06T02:07:18.179Z,72.95
2024-01-06T02:08:21.932Z,73.05
2024-01-06T02:09:25.978Z,73.04
2024-01-06T02:10:30.443Z,72.94
2024-01-06T02:11:35.175Z,73.02
2024-01-06T02:12:39.964Z,73.00
2024-01-06T02:13:42.865Z,73.00
2024-01-06T02:14:47.935Z,72.95
2024-01-06T02:15:56.622Z,73.05
2024-01-06T02:17:02.742Z,72.91
2024-01-06T02:18:07.353Z,72.92
2024-01-06T02:19:15.696Z,72.92
2024-01-06T02:20:25.945Z,72.95
2024-01-06T02:21:34.709Z,72.89
2024-01-06T02:22:43.467Z,72.83
2024-01-06T02:23:51.045Z,72.81
2024-01-06T02:24:57.967Z,72.78
2024-01-06T02:27:27.165Z,72.91
2024-01-06T02:30:01.172Z,73.16
2024-01-06T02:31:05.993Z,73.32
2024-01-06T02:32:08.668Z,73.24
2024-01-06T02:33:16.667Z,73.31
2024-01-06T02:34:23.817Z,73.39
2024-01-06T02:35:28.108Z,73.21
2024-01-06T02:36:41.407Z,73.31
2024-01-06T02:37:45.957Z,73.20
2024-01-06T02:38:52.620Z,73.20
2024-01-06T02:39:59.628Z,73.15
2024-01-06T02:41:03.286Z,73.14
2024-01-06T02:42:17.777Z,73.01
2024-01-06T02:43:22.307Z,73.00
2024-01-06T02:44:26.627Z,72.94
2024-01-06T02:45:47.757Z,73.01
2024-01-06T02:46:52.380Z,73.04
2024-01-06T02:48:01.331Z,73.05
2024-01-06T02:49:07.336Z,73.13
2024-01-06T02:50:13.314Z,73.17
2024-01-06T02:51:18.950Z,73.42
2024-01-06T02:52:22.561Z,73.41
2024-01-06T02:53:29.979Z,73.44
2024-01-06T02:54:45.370Z,73.40
2024-01-06T02:55:54.994Z,73.45
2024-01-06T02:56:59.738Z,73.39
2024-01-06T02:58:05.413Z,73.47
2024-01-06T02:59:12.636Z,73.58
2024-01-06T03:00:20.698Z,73.85
2024-01-06T03:01:24.283Z,73.96
2024-01-06T03:02:29.841Z,73.84
2024-01-06T03:03:33.648Z,73.83
2024-01-06T03:04:40.416Z,73.82
2024-01-06T03:05:53.419Z,73.69
2024-01-06T03:06:56.671Z,73.82
2024-01-06T03:08:03.281Z,73.88
2024-01-06T03:09:07.848Z,73.91
2024-01-06T03:10:12.916Z,73.96
2024-01-06T03:11:33.474Z,73.99
2024-01-06T03:12:47.247Z,74.09
2024-01-06T03:13:52.334Z,74.14
2024-01-06T03:14:58.519Z,74.19
2024-01-06T03:16:14.974Z,74.26
2024-01-06T03:17:20.453Z,74.33
2024-01-06T03:20:05.421Z,74.46
2024-01-06T03:21:23.117Z,74.42
2024-01-06T03:22:27.906Z,74.49
2024-01-06T03:23:34.700Z,74.47
2024-01-06T03:24:56.752Z,74.43
2024-01-06T03:26:01.005Z,74.49
2024-01-06T03:27:04.814Z,74.50
2024-01-06T03:28:10.862Z,74.52
2024-01-06T03:29:21.718Z,74.45
2024-01-06T03:30:24.449Z,74.35
2024-01-06T03:31:30.204Z,74.34
2024-01-06T03:32:41.438Z,74.30
2024-01-06T03:33:47.366Z,74.44
2024-01-06T03:34:50.028Z,74.42
2024-01-06T03:35:58.116Z,73.95
2024-01-06T03:37:02.101Z,73.73
2024-01-06T03:38:08.111Z,73.57
2024-01-06T03:39:19.327Z,73.48
2024-01-06T03:40:26.480Z,73.50
2024-01-06T03:41:29.166Z,73.08
2024-01-06T03:42:32.644Z,72.92
2024-01-06T03:43:36.166Z,72.93
2024-01-06T03:44:40.365Z,73.02
2024-01-06T03:45:45.171Z,72.82
2024-01-06T03:46:51.940Z,72.82
2024-01-06T03:47:55.220Z,72.79
2024-01-06T03:48:59.701Z,72.53
2024-01-06T03:50:06.289Z,72.68
2024-01-06T03:51:13.285Z,72.83
2024-01-06T03:52:19.366Z,72.65
2024-01-06T03:53:31.460Z,72.43
2024-01-06T03:54:34.829Z,72.31
2024-01-06T03:55:40.737Z,72.23
2024-01-06T03:56:52.331Z,72.31
2024-01-06T03:57:58.632Z,72.03
2024-01-06T03:59:02.939Z,71.86
2024-01-06T04:00:07.780Z,71.89
2024-01-06T04:01:13.573Z,71.81
2024-01-06T04:02:21.461Z,71.79
2024-01-06T04:03:25.098Z,71.90
2024-01-06T04:04:28.548Z,71.93
2024-01-06T04:05:31.328Z,71.84
2024-01-06T04:06:38.098Z,71.57
2024-01-06T04:07:42.928Z,71.58
2024-01-06T04:08:48.198Z,71.52
2024-01-06T04:10:01.466Z,71.45
2024-01-06T04:11:11.228Z,71.18
2024-01-06T04:12:16.026Z,71.18
2024-01-06T04:13:24.273Z,71.12
2024-01-06T04:14:30.413Z,71.14
2024-01-06T04:15:37.652Z,71.29
2024-01-06T04:16:40.715Z,70.96
2024-01-06T04:17:47.196Z,71.16
2024-01-06T04:18:54.443Z,71.24
2024-01-06T04:19:57.815Z,71.16
2024-01-06T04:21:08.822Z,70.96
2024-01-06T04:22:18.105Z,71.04
2024-01-06T04:23:29.299Z,71.01
2024-01-06T04:24:40.823Z,71.08
2024-01-06T04:25:45.953Z,71.27
2024-01-06T04:26:52.642Z,71.31
2024-01-06T04:27:54.961Z,71.54
2024-01-06T04:28:59.501Z,71.37
2024-01-06T04:30:08.054Z,71.42
2024-01-06T04:31:12.456Z,71.33
2024-01-06T04:32:25.729Z,71.34
2024-01-06T04:33:30.782Z,71.57
2024-01-06T04:34:38.049Z,71.97
2024-01-06T04:35:40.844Z,71.89
2024-01-06T04:36:44.217Z,71.61
2024-01-06T04:37:48.966Z,71.59
2024-01-06T04:38:53.447Z,71.53
2024-01-06T04:39:58.369Z,71.39
2024-01-06T04:41:03.982Z,71.40
2024-01-06T04:42:09.598Z,71.12
2024-01-06T04:43:15.969Z,71.14
2024-01-06T04:44:23.902Z,71.22
2024-01-06T04:45:30.304Z,71.21
2024-01-06T04:46:36.769Z,71.14
2024-01-06T04:47:41.767Z,70.96
2024-01-06T04:48:44.526Z,70.90
2024-01-06T04:51:12.824Z,71.25
2024-01-06T04:52:18.160Z,71.00
2024-01-06T04:53:22.848Z,70.96
2024-01-06T04:54:27.883Z,70.80
2024-01-06T04:55:36.040Z,70.88
2024-01-06T04:56:40.408Z,70.71
2024-01-06T04:57:45.783Z,70.94
2024-01-06T05:00:15.754Z,70.56
2024-01-06T05:01:22.257Z,70.67
2024-01-06T05:03:51.643Z,70.35
2024-01-06T05:04:55.297Z,70.53
2024-01-06T05:06:04.819Z,70.89
2024-01-06T05:07:16.362Z,70.92
2024-01-06T05:08:24.324Z,70.88
2024-01-06T05:09:31.728Z,70.70
2024-01-06T05:10:36.354Z,70.65
2024-01-06T05:11:44.745Z,70.70
2024-01-06T05:12:52.433Z,70.91
2024-01-06T05:13:55.332Z,71.01
2024-01-06T05:14:59.318Z,70.95
2024-01-06T05:16:11.211Z,71.01
2024-01-06T05:17:20.081Z,70.77
2024-01-06T05:18:26.623Z,70.67
2024-01-06T05:19:34.659Z,70.66
2024-01-06T05:20:41.144Z,71.01
2024-01-06T05:21:49.073Z,71.13
2024-01-06T05:22:56.817Z,71.12
2024-01-06T05:24:10.640Z,71.12
2024-01-06T05:25:20.443Z,71.23
2024-01-06T05:26:24.265Z,71.35
2024-01-06T05:27:27.845Z,71.33
2024-01-06T05:28:30.022Z,71.16
2024-01-06T05:29:32.698Z,71.28
2024-01-06T05:30:35.024Z,71.31
2024-01-06T05:31:37.999Z,71.32
2024-01-06T05:32:40.911Z,71.28
2024-01-06T05:33:43.270Z,71.33
2024-01-06T05:34:47.219Z,71.24
2024-01-06T05:35:49.701Z,71.29
2024-01-06T05:36:52.142Z,71.41
2024-01-06T05:37:54.484Z,71.37
2024-01-06T05:38:56.857Z,71.39
2024-01-06T05:39:59.310Z,71.23
2024-01-06T05:41:01.575Z,71.12
2024-01-06T05:42:03.920Z,71.00
2024-01-06T05:43:06.083Z,70.95
2024-01-06T05:44:08.198Z,70.84
2024-01-06T05:46:23.436Z,70.43
2024-01-06T05:47:25.976Z,70.12
2024-01-06T05:48:28.892Z,70.01
2024-01-06T05:49:31.391Z,69.94
2024-01-06T05:50:33.777Z,69.83
2024-01-06T05:51:36.757Z,69.53
2024-01-06T05:52:39.360Z,69.64
2024-01-06T05:53:41.546Z,69.70
2024-01-06T05:54:44.231Z,69.81
2024-01-06T05:55:47.064Z,69.73
2024-01-06T05:56:49.525Z,69.82
2024-01-06T05:57:51.904Z,69.79
2024-01-06T05:58:54.735Z,69.86
2024-01-06T05:59:57.846Z,70.12
2024-01-06T06:01:00.444Z,70.16
2024-01-06T06:02:02.780Z,70.24
2024-01-06T06:03:05.287Z,70.25
2024-01-06T06:04:07.657Z,70.20
2024-01-06T06:05:10.621Z,70.21
2024-01-06T06:06:13.827Z,70.29
2024-01-06T06:07:15.991Z,70.29
2024-01-06T06:08:18.253Z,70.16
2024-01-06T06:09:22.811Z,70.14
2024-01-06T06:10:25.666Z,70.14
2024-01-06T06:11:28.162Z,70.22
2024-01-06T06:12:30.295Z,70.39
2024-01-06T06:13:32.909Z,70.36
2024-01-06T06:14:35.602Z,70.35
2024-01-06T06:15:37.804Z,70.52
2024-01-06T06:16:40.177Z,70.58
2024-01-06T06:17:43.352Z,70.79
2024-01-06T06:18:45.619Z,70.97
2024-01-06T06:19:49.027Z,70.86
2024-01-06T06:20:52.470Z,70.81
2024-01-06T06:21:55.141Z,70.73
2024-01-06T06:22:57.760Z,70.84
2024-01-06T06:23:59.839Z,70.94
2024-01-06T06:25:02.059Z,70.99
2024-01-06T06:26:06.269Z,71.10
2024-01-06T06:27:08.957Z,71.18
2024-01-06T06:28:11.485Z,71.13
2024-01-06T06:29:14.048Z,71.07
2024-01-06T06:30:17.553Z,71.03
2024-01-06T06:31:20.513Z,71.13
2024-01-06T06:32:24.033Z,71.18
2024-01-06T06:33:26.402Z,71.27
2024-01-06T06:34:29.036Z,71.37
2024-01-06T06:35:31.206Z,71.20
2024-01-06T06:36:33.433Z,71.18
2024-01-06T06:37:35.885Z,71.28
2024-01-06T06:38:38.031Z,71.24
2024-01-06T06:39:40.329Z,71.09
2024-01-06T06:40:42.836Z,70.99
2024-01-06T06:41:45.274Z,71.08
2024-01-06T06:42:48.076Z,71.10
2024-01-06T06:43:50.084Z,71.19
2024-01-06T06:44:52.661Z,70.96
2024-01-06T06:45:54.990Z,71.01
2024-01-06T06:46:57.613Z,71.04
2024-01-06T06:47:59.904Z,70.98
2024-01-06T06:49:02.839Z,70.80
2024-01-06T06:50:06.208Z,70.81
2024-01-06T06:51:08.432Z,70.94
2024-01-06T06:52:11.158Z,71.09
2024-01-06T06:53:13.328Z,70.93
2024-01-06T06:54:16.231Z,70.67
2024-01-06T06:55:20.460Z,70.81
2024-01-06T06:56:25.117Z,70.97
2024-01-06T06:57:28.437Z,70.86
2024-01-06T06:58:31.253Z,70.86
2024-01-06T06:59:33.499Z,70.86
2024-01-06T07:00:36.681Z,70.71
2024-01-06T07:01:39.072Z,70.46
2024-01-06T07:02:41.631Z,70.57
2024-01-06T07:03:44.540Z,70.39
2024-01-06T07:04:47.414Z,70.38
2024-01-06T07:05:50.234Z,70.46
2024-01-06T07:06:52.727Z,70.67
2024-01-06T07:07:55.501Z,70.72
2024-01-06T07:08:57.732Z,70.93
2024-01-06T07:10:02.276Z,70.43
2024-01-06T07:11:05.001Z,70.33
2024-01-06T07:12:07.694Z,70.11
2024-01-06T07:13:09.950Z,70.22
2024-01-06T07:14:12.057Z,70.13
2024-01-06T07:15:14.610Z,69.76
2024-01-06T07:16:19.837Z,69.93
2024-01-06T07:17:23.160Z,70.12
2024-01-06T07:18:26.097Z,70.20
2024-01-06T07:19:30.004Z,70.09
2024-01-06T07:20:33.409Z,70.20
2024-01-06T07:21:35.676Z,70.35
2024-01-06T07:22:37.945Z,70.51
2024-01-06T07:23:41.241Z,70.48
2024-01-06T07:24:43.580Z,70.10
2024-01-06T07:25:46.424Z,70.28
2024-01-06T07:26:50.944Z,70.43
2024-01-06T07:27:55.688Z,70.35
2024-01-06T07:28:58.133Z,70.33
2024-01-06T07:30:04.256Z,70.55
2024-01-06T07:31:07.225Z,70.63
2024-01-06T07:32:09.980Z,70.09
2024-01-06T07:33:12.266Z,70.03
2024-01-06T07:34:14.510Z,69.81
2024-01-06T07:35:16.729Z,69.72
2024-01-06T07:36:19.665Z,69.79
2024-01-06T07:37:22.449Z,69.86
2024-01-06T07:38:26.953Z,69.80
2024-01-06T07:39:30.069Z,69.74
2024-01-06T07:40:32.734Z,69.87
2024-01-06T07:41:35.425Z,69.99
2024-01-06T07:42:37.972Z,70.21
2024-01-06T07:43:40.526Z,69.94
2024-01-06T07:44:43.300Z,69.97
2024-01-06T07:45:46.269Z,70.33
2024-01-06T07:46:49.207Z,70.32
2024-01-06T07:47:51.789Z,70.55
2024-01-06T07:48:54.427Z,70.66
2024-01-06T07:49:57.804Z,70.62
2024-01-06T07:51:00.168Z,70.62
2024-01-06T07:52:02.369Z,70.66
2024-01-06T07:53:05.182Z,70.83
2024-01-06T07:54:08.485Z,71.07
2024-01-06T07:55:11.349Z,71.14
2024-01-06T07:56:15.391Z,71.06
2024-01-06T07:57:17.583Z,70.83
2024-01-06T07:58:21.692Z,70.75
2024-01-06T07:59:23.932Z,70.71
2024-01-06T08:00:27.120Z,70.71
2024-01-06T08:01:30.198Z,70.54
2024-01-06T08:02:32.419Z,70.51
2024-01-06T08:03:34.743Z,70.50
2024-01-06T08:04:37.149Z,70.56
2024-01-06T08:05:39.773Z,70.69
2024-01-06T08:06:42.845Z,70.73
2024-01-06T08:07:45.072Z,70.55
2024-01-06T08:08:50.462Z,70.83
2024-01-06T08:09:52.872Z,70.77
2024-01-06T08:10:55.162Z,70.52
2024-01-06T08:11:57.402Z,70.36
2024-01-06T08:13:00.908Z,70.47
2024-01-06T08:14:03.670Z,70.71
2024-01-06T08:15:06.407Z,70.96
2024-01-06T08:16:09.101Z,70.63
2024-01-06T08:17:11.494Z,70.58
2024-01-06T08:18:14.282Z,70.60
2024-01-06T08:19:17.797Z,70.38
2024-01-06T08:20:22.878Z,70.18
2024-01-06T08:21:25.244Z,70.37
2024-01-06T08:22:27.520Z,70.46
2024-01-06T08:23:30.375Z,70.59
2024-01-06T08:24:33.295Z,70.76
2024-01-06T08:25:36.654Z,70.67
2024-01-06T08:26:39.135Z,70.47
2024-01-06T08:27:42.606Z,70.16
2024-01-06T08:28:46.086Z,70.12
2024-01-06T08:29:49.617Z,70.01
2024-01-06T08:30:52.319Z,70.10
2024-01-06T08:31:54.912Z,70.10
2024-01-06T08:32:57.558Z,70.07
2024-01-06T08:34:01.075Z,70.34
2024-01-06T08:35:04.133Z,70.32
2024-01-06T08:36:07.188Z,70.42
2024-01-06T08:37:09.589Z,70.62
2024-01-06T08:38:11.801Z,70.32
2024-01-06T08:39:14.799Z,70.38
2024-01-06T08:40:17.645Z,70.33
2024-01-06T08:41:21.830Z,70.26
2024-01-06T08:42:24.103Z,70.50
2024-01-06T08:43:26.736Z,70.83
2024-01-06T08:44:29.622Z,70.57
2024-01-06T08:45:31.911Z,70.23
2024-01-06T08:46:34.322Z,70.46
2024-01-06T08:47:36.736Z,70.59
2024-01-06T08:48:39.180Z,70.33
2024-01-06T08:49:42.187Z,70.52
2024-01-06T08:50:45.289Z,70.70
2024-01-06T08:51:47.517Z,70.93
2024-01-06T08:52:50.844Z,70.65
2024-01-06T08:53:53.176Z,70.20
2024-01-06T08:54:56.505Z,70.08
2024-01-06T08:55:58.884Z,70.17
2024-01-06T08:57:01.293Z,70.02
2024-01-06T08:58:04.247Z,69.84
2024-01-06T08:59:06.944Z,69.90
2024-01-06T09:00:10.730Z,70.13
2024-01-06T09:01:13.106Z,70.16
2024-01-06T09:02:16.271Z,70.13
2024-01-06T09:03:20.879Z,70.12
2024-01-06T09:04:24.406Z,70.32
2024-01-06T09:05:26.787Z,70.41
2024-01-06T09:06:29.580Z,70.18
2024-01-06T09:07:31.959Z,70.03
2024-01-06T09:08:34.503Z,70.01
2024-01-06T09:09:37.141Z,69.92
2024-01-06T09:10:41.602Z,69.90
2024-01-06T09:11:43.967Z,70.02
2024-01-06T09:12:46.189Z,70.23
2024-01-06T09:13:48.918Z,70.34
2024-01-06T09:14:51.494Z,70.34
2024-01-06T09:15:55.434Z,70.15
2024-01-06T09:16:59.302Z,70.13
2024-01-06T09:18:01.680Z,70.16
2024-01-06T09:19:04.298Z,70.10
2024-01-06T09:20:07.670Z,70.10
2024-01-06T09:21:11.217Z,70.31
2024-01-06T09:22:14.102Z,70.36
2024-01-06T09:23:16.990Z,70.58
2024-01-06T09:24:20.032Z,70.46
2024-01-06T09:25:24.711Z,70.51
2024-01-06T09:26:27.820Z,70.71
2024-01-06T09:27:30.680Z,70.81
2024-01-06T09:28:33.501Z,70.61
2024-01-06T09:29:36.935Z,70.41
2024-01-06T09:30:40.002Z,70.31
2024-01-06T09:31:42.565Z,70.07
2024-01-06T09:32:45.057Z,70.00
2024-01-06T09:33:47.718Z,70.10
2024-01-06T09:34:50.484Z,69.98
2024-01-06T09:35:53.722Z,70.16
2024-01-06T09:36:56.313Z,70.11
2024-01-06T09:37:59.061Z,70.24
2024-01-06T09:39:01.299Z,70.52
2024-01-06T09:40:04.475Z,70.39
2024-01-06T09:41:07.439Z,70.27
2024-01-06T09:42:09.921Z,70.18
2024-01-06T09:43:13.732Z,70.35
2024-01-06T09:44:17.131Z,70.60
2024-01-06T09:45:20.347Z,70.67
2024-01-06T09:46:28.508Z,70.40
2024-01-06T09:47:34.569Z,70.32
2024-01-06T09:48:40.644Z,70.28
2024-01-06T09:50:59.245Z,70.45
2024-01-06T09:52:03.327Z,70.62
2024-01-06T09:53:06.115Z,70.80
2024-01-06T09:54:14.146Z,70.65
2024-01-06T09:55:17.346Z,70.99
2024-01-06T09:56:20.395Z,71.14
2024-01-06T09:57:24.977Z,71.32
2024-01-06T09:58:27.795Z,71.38
2024-01-06T09:59:31.046Z,71.43
2024-01-06T10:00:33.561Z,71.74
2024-01-06T10:01:36.346Z,71.94
2024-01-06T10:02:38.633Z,72.04
2024-01-06T10:03:42.914Z,72.12
2024-01-06T10:04:45.329Z,72.12
2024-01-06T10:05:47.538Z,71.94
2024-01-06T10:06:50.068Z,72.07
2024-01-06T10:07:53.001Z,72.16
2024-01-06T10:08:55.131Z,72.16
2024-01-06T10:09:58.124Z,72.05
2024-01-06T10:11:01.960Z,72.12
2024-01-06T10:12:05.080Z,72.27
2024-01-06T10:13:08.013Z,72.28
2024-01-06T10:14:11.132Z,72.21
2024-01-06T10:15:13.563Z,72.43
2024-01-06T10:16:18.410Z,72.38
2024-01-06T10:17:21.264Z,72.59
2024-01-06T10:18:26.070Z,72.72
2024-01-06T10:19:29.036Z,72.75
2024-01-06T10:20:32.167Z,72.73
2024-01-06T10:21:34.832Z,72.60
2024-01-06T10:23:50.968Z,72.67
2024-01-06T10:24:55.453Z,72.93
2024-01-06T10:25:59.670Z,72.72
2024-01-06T10:27:02.245Z,72.62
2024-01-06T10:28:05.257Z,72.42
2024-01-06T10:29:07.973Z,72.25
2024-01-06T10:30:11.562Z,72.34
2024-01-06T10:31:14.003Z,72.54
2024-01-06T10:32:17.998Z,72.74
2024-01-06T10:33:24.741Z,72.54
2024-01-06T10:34:28.241Z,72.52
2024-01-06T10:35:31.628Z,72.40
2024-01-06T10:36:34.071Z,72.48
2024-01-06T10:37:38.017Z,72.32
2024-01-06T10:38:41.143Z,72.20
2024-01-06T10:39:43.576Z,72.18
2024-01-06T10:41:03.529Z,72.21
2024-01-06T10:42:07.812Z,71.99
2024-01-06T10:43:11.096Z,71.89
2024-01-06T10:44:14.787Z,71.91
2024-01-06T10:45:17.799Z,71.87
2024-01-06T10:46:20.631Z,71.90
2024-01-06T10:47:23.689Z,72.02
2024-01-06T10:48:27.759Z,72.12
2024-01-06T10:49:31.407Z,72.02
2024-01-06T10:50:34.677Z,71.78
2024-01-06T10:51:40.399Z,71.76
2024-01-06T10:52:44.132Z,71.80
2024-01-06T10:53:50.015Z,71.71
2024-01-06T10:54:57.667Z,71.51
2024-01-06T10:56:02.356Z,71.51
2024-01-06T10:57:06.759Z,71.59
2024-01-06T10:58:10.713Z,71.62
2024-01-06T10:59:14.114Z,71.46
2024-01-06T11:00:17.758Z,71.65
2024-01-06T11:01:26.170Z,71.67
2024-01-06T11:02:28.710Z,71.64
2024-01-06T11:03:32.370Z,71.44
2024-01-06T11:04:36.326Z,71.49
2024-01-06T11:05:40.874Z,71.56
2024-01-06T11:06:44.832Z,71.57
2024-01-06T11:07:47.841Z,71.71
2024-01-06T11:09:22.662Z,71.42
2024-01-06T11:10:25.989Z,71.37
2024-01-06T11:11:29.378Z,71.42
2024-01-06T11:12:32.238Z,71.57
2024-01-06T11:13:34.944Z,71.37
2024-01-06T11:14:38.092Z,71.52
2024-01-06T11:15:44.967Z,71.65
2024-01-06T11:16:48.088Z,71.72
2024-01-06T11:17:52.844Z,71.64
2024-01-06T11:18:56.172Z,71.46
2024-01-06T11:20:09.283Z,71.65
2024-01-06T11:21:21.421Z,71.46
2024-01-06T11:22:29.201Z,71.78
2024-01-06T11:23:31.563Z,71.65
2024-01-06T11:24:38.903Z,71.57
2024-01-06T11:25:41.820Z,71.64
2024-01-06T11:26:45.548Z,71.51
2024-01-06T11:27:50.643Z,71.18
2024-01-06T11:28:53.173Z,71.20
2024-01-06T11:30:00.127Z,71.23
2024-01-06T11:31:07.994Z,71.23
2024-01-06T11:32:37.894Z,71.15
2024-01-06T11:33:47.750Z,71.06
2024-01-06T11:34:54.791Z,71.16
2024-01-06T11:35:57.235Z,71.01
2024-01-06T11:37:00.077Z,71.03
2024-01-06T11:38:02.529Z,71.08
2024-01-06T11:39:06.871Z,71.23
2024-01-06T11:40:25.273Z,71.01
2024-01-06T11:41:49.360Z,70.93
2024-01-06T11:43:00.775Z,70.86
2024-01-06T11:44:02.930Z,70.94
2024-01-06T11:45:06.690Z,70.85
2024-01-06T11:46:12.030Z,70.93
2024-01-06T11:47:15.187Z,71.14
2024-01-06T11:48:18.507Z,71.11
2024-01-06T11:49:26.423Z,70.89
2024-01-06T11:50:33.486Z,71.03
2024-01-06T11:51:36.776Z,71.42
2024-01-06T11:52:41.856Z,71.24
2024-01-06T11:53:45.027Z,71.12
2024-01-06T11:54:48.245Z,71.18
2024-01-06T11:55:50.389Z,71.17
2024-01-06T11:56:52.839Z,71.16
2024-01-06T11:57:56.147Z,71.00
2024-01-06T11:58:59.494Z,71.09
2024-01-06T12:00:01.965Z,70.71
2024-01-06T12:01:06.399Z,70.81
2024-01-06T12:02:13.256Z,70.80
2024-01-06T12:03:16.544Z,70.51
2024-01-06T12:04:19.843Z,70.46
2024-01-06T12:05:22.646Z,70.56
2024-01-06T12:06:25.048Z,70.43
2024-01-06T12:07:27.295Z,70.29
2024-01-06T12:08:30.034Z,70.43
2024-01-06T12:09:33.266Z,70.77
2024-01-06T12:10:35.666Z,70.49
2024-01-06T12:11:38.299Z,70.72
2024-01-06T12:12:40.777Z,70.70
2024-01-06T12:13:43.212Z,70.96
2024-01-06T12:14:46.360Z,71.20
2024-01-06T12:15:49.352Z,70.84
2024-01-06T12:16:52.623Z,70.55
2024-01-06T12:17:55.897Z,70.69
2024-01-06T12:18:59.724Z,70.79
2024-01-06T12:20:03.167Z,70.75
2024-01-06T12:21:05.724Z,70.72
2024-01-06T12:22:10.540Z,70.65
2024-01-06T12:23:13.898Z,70.79
2024-01-06T12:24:18.558Z,70.68
2024-01-06T12:25:24.089Z,70.44
2024-01-06T12:26:26.762Z,70.49
2024-01-06T12:27:29.016Z,70.55
2024-01-06T12:28:31.527Z,70.53
2024-01-06T12:29:34.086Z,70.78
2024-01-06T12:30:36.551Z,70.72
2024-01-06T12:32:57.390Z,70.51
2024-01-06T12:34:00.357Z,70.50
2024-01-06T12:35:03.425Z,70.74
2024-01-06T12:36:13.969Z,70.63
2024-01-06T12:37:14.901Z,70.72
2024-01-06T12:38:20.638Z,70.81
2024-01-06T12:39:22.957Z,70.83
2024-01-06T12:40:25.000Z,70.92
2024-01-06T12:41:31.476Z,70.75
2024-01-06T12:42:33.659Z,70.79
2024-01-06T12:43:39.788Z,70.58
2024-01-06T12:44:42.763Z,70.49
2024-01-06T12:45:44.929Z,70.52
2024-01-06T12:46:48.227Z,70.70
2024-01-06T12:47:51.031Z,70.51
2024-01-06T12:48:53.639Z,70.45
2024-01-06T12:49:55.940Z,70.43
2024-01-06T12:50:58.375Z,70.42
2024-01-06T12:52:00.639Z,70.55
2024-01-06T12:53:03.095Z,70.69
2024-01-06T12:54:05.436Z,70.91
2024-01-06T12:55:08.291Z,70.94
2024-01-06T12:56:12.897Z,70.93
2024-01-06T12:57:15.275Z,70.78
2024-01-06T12:58:17.862Z,70.98
2024-01-06T12:59:20.119Z,70.91
2024-01-06T13:00:24.078Z,70.99
2024-01-06T13:01:26.430Z,70.98
2024-01-06T13:02:28.605Z,70.99
2024-01-06T13:03:32.933Z,71.00
2024-01-06T13:04:35.908Z,70.82
2024-01-06T13:05:39.218Z,70.84
2024-01-06T13:06:42.551Z,70.73
2024-01-06T13:07:45.797Z,70.76
2024-01-06T13:08:48.295Z,70.82
2024-01-06T13:09:51.545Z,70.84
2024-01-06T13:10:55.538Z,71.00
2024-01-06T13:11:58.995Z,71.18
2024-01-06T13:13:01.725Z,71.34
2024-01-06T13:14:05.012Z,71.43
2024-01-06T13:15:09.145Z,71.50
2024-01-06T13:16:12.369Z,71.18
2024-01-06T13:17:14.942Z,70.97
2024-01-06T13:18:17.278Z,70.96
2024-01-06T13:19:20.117Z,71.13
2024-01-06T13:20:23.910Z,71.10
2024-01-06T13:21:26.641Z,71.04
2024-01-06T13:22:28.952Z,71.06
2024-01-06T13:23:31.304Z,71.34
2024-01-06T13:24:33.941Z,71.17
2024-01-06T13:25:37.149Z,71.02
2024-01-06T13:26:40.252Z,70.83
2024-01-06T13:27:42.339Z,70.80
2024-01-06T13:28:44.807Z,70.89
2024-01-06T13:29:47.643Z,70.84
2024-01-06T13:30:50.750Z,70.71
2024-01-06T13:31:53.366Z,70.79
2024-01-06T13:32:56.254Z,70.83
2024-01-06T13:33:58.603Z,70.46
2024-01-06T13:35:02.106Z,70.58
2024-01-06T13:36:04.973Z,70.70
2024-01-06T13:37:08.174Z,70.91
2024-01-06T13:38:11.103Z,70.81
2024-01-06T13:39:13.915Z,70.89
2024-01-06T13:40:16.390Z,70.87
2024-01-06T13:41:18.620Z,70.67
2024-01-06T13:42:21.277Z,70.52
2024-01-06T13:43:24.122Z,70.64
2024-01-06T13:44:26.379Z,70.73
2024-01-06T13:45:28.704Z,70.66
2024-01-06T13:46:31.064Z,70.65
2024-01-06T13:47:34.502Z,70.85
2024-01-06T13:48:36.885Z,71.04
2024-01-06T13:49:39.469Z,71.09
2024-01-06T13:50:42.688Z,70.80
2024-01-06T13:51:45.008Z,70.59
2024-01-06T13:52:47.927Z,70.52
2024-01-06T13:53:50.949Z,70.37
2024-01-06T13:54:53.413Z,70.13
2024-01-06T13:55:56.188Z,70.21
2024-01-06T13:56:58.798Z,70.33
2024-01-06T13:58:01.106Z,70.46
2024-01-06T13:59:03.737Z,70.56
2024-01-06T14:00:07.322Z,70.61
2024-01-06T14:01:11.576Z,70.76
2024-01-06T14:02:14.621Z,70.89
2024-01-06T14:03:17.095Z,71.05
2024-01-06T14:04:20.191Z,71.24
2024-01-06T14:05:23.627Z,71.68